Time;durP1;ratioP1;P1;durP2;ratioP2;P2;SDS_P1;SDS_P2;PMS_P1;PMS_P2;Temp;Humidity;BMP_temperature;BMP_pressure;BME280_temperature;BME280_humidity;BME280_pressure;Samples;Min_cycle;Max_cycle;Signal;HPM_P1;HPM_P2
2022/04/26 03:37:20;;;;;;;5.92;5.37;;;;;;;13.44;70.74;98348.73;1743460;80;21268;-67
2022/04/26 03:39:47;;;;;;;5.95;5.28;;;;;;;13.42;70.61;98351.62;1751243;80;20986;-66
2022/04/26 03:42:15;;;;;;;5.67;5.17;;;;;;;13.39;70.46;98360.06;1748886;82;21572;-66
2022/04/26 03:44:42;;;;;;;5.65;5.15;;;;;;;13.39;70.34;98364.08;1705296;83;20944;-66
2022/04/26 03:47:09;;;;;;;5.40;5.00;;;;;;;13.36;70.34;98369.84;1734991;82;20990;-65
2022/04/26 03:49:37;;;;;;;5.62;5.12;;;;;;;13.34;70.15;98370.58;1753736;80;20891;-66
2022/04/26 03:52:06;;;;;;;4.58;4.17;;;;;;;13.31;70.15;98374.18;1753911;80;20899;-66
2022/04/26 03:54:33;;;;;;;4.10;3.80;;;;;;;13.29;70.20;98379.75;1752268;81;21524;-66
2022/04/26 03:57:01;;;;;;;3.40;3.20;;;;;;;13.27;70.20;98384.46;1745397;82;20919;-67
2022/04/26 03:59:28;;;;;;;3.65;3.35;;;;;;;13.23;70.06;98387.27;1752678;81;20995;-66
2022/04/26 04:01:54;;;;;;;3.12;2.92;;;;;;;13.16;69.79;98393.68;1753911;80;21168;-67
2022/04/26 04:04:22;;;;;;;3.20;3.00;;;;;;;13.12;69.73;98401.80;1745401;81;20932;-66
2022/04/26 04:06:50;;;;;;;3.85;3.55;;;;;;;13.12;69.87;98411.97;1744168;81;20981;-66
2022/04/26 04:09:16;;;;;;;2.98;2.77;;;;;;;13.12;70.06;98411.97;1753767;80;20907;-65
2022/04/26 04:11:44;;;;;;;3.42;3.15;;;;;;;13.13;70.01;98416.80;1748538;81;20924;-66
2022/04/26 04:14:10;;;;;;;3.30;3.10;;;;;;;13.12;70.10;98421.31;1731425;82;21269;-66
2022/04/26 04:16:37;;;;;;;3.83;3.40;;;;;;;13.13;70.25;98429.64;1741751;80;20986;-66
2022/04/26 04:19:24;;;;;;;3.40;3.10;;;;;;;13.12;70.35;98432.50;1743099;80;20959;-65
2022/04/26 04:21:53;;;;;;;4.42;4.03;;;;;;;13.12;70.31;98434.66;1752636;81;21457;-65
2022/04/26 04:24:20;;;;;;;6.85;6.10;;;;;;;13.13;70.43;98441.66;1751851;81;20888;-66
2022/04/26 04:26:46;;;;;;;7.58;6.78;;;;;;;13.13;70.37;98444.84;1753883;80;22236;-66
2022/04/26 04:29:15;;;;;;;11.55;8.78;;;;;;;13.10;70.24;98449.25;1752371;81;20947;-66
2022/04/26 04:31:42;;;;;;;11.03;9.93;;;;;;;13.11;70.18;98450.40;1741502;81;20899;-65
2022/04/26 04:34:09;;;;;;;11.15;9.40;;;;;;;13.11;70.21;98450.91;1752341;81;20995;-66
2022/04/26 04:36:38;;;;;;;10.25;9.25;;;;;;;13.14;70.15;98449.16;1742687;80;20954;-65
2022/04/26 04:39:05;;;;;;;9.38;7.47;;;;;;;13.16;70.18;98456.44;1752610;80;21150;-65
2022/04/26 04:41:37;;;;;;;6.03;5.53;;;;;;;13.17;70.13;98454.88;1752481;81;20832;-65
2022/04/26 04:44:05;;;;;;;4.95;4.53;;;;;;;13.18;70.08;98455.70;1751503;81;20938;-66
2022/04/26 04:46:34;;;;;;;3.67;3.37;;;;;;;13.22;69.79;98466.28;1741727;80;20951;-66
2022/04/26 04:49:01;;;;;;;3.52;3.22;;;;;;;13.22;69.74;98464.41;1753079;80;21539;-65
2022/04/26 04:51:27;;;;;;;3.37;3.08;;;;;;;13.23;69.49;98465.23;1751698;81;21265;-65
2022/04/26 04:53:54;;;;;;;3.05;2.77;;;;;;;13.25;69.29;98464.50;1751031;81;21008;-66
2022/04/26 04:56:23;;;;;;;3.45;3.12;;;;;;;13.22;69.12;98477.76;1738469;81;21576;-66
2022/04/26 04:58:51;;;;;;;3.65;3.35;;;;;;;13.20;69.02;98473.15;1752021;81;20975;-66
2022/04/26 05:01:18;;;;;;;4.40;3.08;;;;;;;13.18;69.04;98472.55;1752040;80;20938;-66
2022/04/26 05:03:45;;;;;;;3.37;3.08;;;;;;;13.17;69.02;98475.41;1751993;81;21262;-66
2022/04/26 05:06:15;;;;;;;3.33;3.02;;;;;;;13.16;69.06;98477.80;1743117;80;21450;-66
2022/04/26 05:08:44;;;;;;;3.40;3.10;;;;;;;13.12;69.23;98480.05;1738081;81;20903;-65
2022/04/26 05:11:12;;;;;;;3.90;3.60;;;;;;;13.11;69.44;98483.77;1751321;81;20904;-66
2022/04/26 05:13:39;;;;;;;3.62;3.33;;;;;;;13.10;69.52;98482.13;1742925;80;20934;-66
2022/04/26 05:16:06;;;;;;;3.55;3.25;;;;;;;13.09;69.58;98487.14;1745159;80;21267;-65
2022/04/26 05:18:32;;;;;;;3.35;3.05;;;;;;;13.09;69.63;98491.69;1753800;80;20922;-66
2022/04/26 05:21:01;;;;;;;3.50;2.85;;;;;;;13.10;69.72;98491.98;1752498;81;20974;-66
2022/04/26 05:26:14;;;;;;;3.30;3.00;;;;;;;13.10;69.89;98483.45;1736256;81;20955;-65
2022/04/26 05:28:40;;;;;;;3.98;3.50;;;;;;;13.10;69.84;98492.80;1750688;80;22230;-66
2022/04/26 05:31:08;;;;;;;4.05;3.52;;;;;;;13.11;70.07;98495.79;1753805;80;20994;-67
2022/04/26 05:33:35;;;;;;;3.92;3.62;;;;;;;13.16;70.05;98503.16;1741458;81;21591;-65
2022/04/26 05:36:03;;;;;;;4.45;3.80;;;;;;;13.17;70.06;98501.61;1742450;80;21091;-66
2022/04/26 05:38:30;;;;;;;5.35;4.85;;;;;;;13.19;70.12;98508.09;1741475;81;20848;-66
2022/04/26 05:40:57;;;;;;;6.08;5.47;;;;;;;13.19;70.13;98512.89;1752496;81;21258;-66
2022/04/26 05:43:24;;;;;;;5.45;4.90;;;;;;;13.18;70.18;98521.95;1747224;81;21002;-65
2022/04/26 05:45:51;;;;;;;6.55;5.95;;;;;;;13.20;70.23;98528.41;1754005;80;20891;-67
2022/04/26 05:48:19;;;;;;;9.73;7.08;;;;;;;13.24;70.18;98527.80;1742184;81;20939;-66
2022/04/26 05:50:46;;;;;;;8.18;7.05;;;;;;;13.28;70.05;98533.02;1722363;80;21047;-65
2022/04/26 05:53:13;;;;;;;11.50;8.50;;;;;;;13.31;70.06;98532.59;1732800;82;21155;-65
2022/04/26 05:55:40;;;;;;;10.08;7.87;;;;;;;13.37;70.02;98535.77;1734363;80;20920;-66
2022/04/26 05:58:07;;;;;;;6.90;6.20;;;;;;;13.43;69.97;98533.58;1732383;82;20948;-64
2022/04/26 06:00:35;;;;;;;6.17;5.53;;;;;;;13.46;69.67;98532.33;1725717;82;21195;-66
2022/04/26 06:03:02;;;;;;;4.65;4.22;;;;;;;13.48;69.48;98539.10;1725981;80;20935;-66
2022/04/26 06:05:29;;;;;;;4.37;3.75;;;;;;;13.49;69.23;98542.60;1732940;82;21324;-66
2022/04/26 06:07:57;;;;;;;4.75;4.30;;;;;;;13.47;68.96;98546.00;1736225;80;21670;-68
2022/04/26 06:10:24;;;;;;;5.28;4.78;;;;;;;13.45;68.94;98547.53;1732674;82;20888;-66
2022/04/26 06:12:52;;;;;;;5.80;5.20;;;;;;;13.43;68.95;98547.44;1729403;82;21008;-65
2022/04/26 06:15:21;;;;;;;7.67;6.20;;;;;;;13.42;68.82;98548.49;1732866;82;21557;-67
2022/04/26 06:17:48;;;;;;;8.18;6.25;;;;;;;13.37;68.66;98547.80;1732603;82;21159;-67
2022/04/26 06:20:16;;;;;;;7.92;7.12;;;;;;;13.33;68.77;98551.90;1733760;80;20928;-66
2022/04/26 06:22:44;;;;;;;10.48;8.78;;;;;;;13.32;69.06;98556.12;1733775;80;20984;-66
2022/04/26 06:25:11;;;;;;;10.23;8.35;;;;;;;13.28;70.06;98563.73;1735125;80;20976;-66
2022/04/26 06:27:39;;;;;;;8.98;8.08;;;;;;;13.25;69.69;98561.47;1734914;80;21007;-69
2022/04/26 06:30:08;;;;;;;8.48;7.45;;;;;;;13.26;69.82;98564.97;1721072;82;20939;-68
2022/04/26 06:32:35;;;;;;;9.93;8.15;;;;;;;13.21;69.77;98565.60;1729144;80;21053;-66
2022/04/26 06:35:03;;;;;;;10.10;8.95;;;;;;;13.19;70.07;98569.52;1713249;80;21514;-65
2022/04/26 06:37:30;;;;;;;10.60;8.85;;;;;;;13.16;71.28;98567.25;1724313;80;20996;-65
2022/04/26 06:39:57;;;;;;;9.15;7.28;;;;;;;13.16;71.79;98567.25;1724498;80;21618;-67
2022/04/26 06:42:24;;;;;;;8.50;7.58;;;;;;;13.14;71.50;98568.78;1724666;80;21155;-66
2022/04/26 06:44:51;;;;;;;7.67;6.20;;;;;;;13.14;71.17;98571.98;1724462;80;20900;-67
2022/04/26 06:47:17;;;;;;;6.80;6.10;;;;;;;13.12;71.36;98572.18;1730381;82;20990;-66
2022/04/26 06:49:44;;;;;;;7.92;6.12;;;;;;;13.05;71.12;98575.86;1726081;80;20967;-68
2022/04/26 06:52:12;;;;;;;7.55;6.35;;;;;;;13.02;71.17;98582.44;1746476;80;20907;-64
2022/04/26 06:54:39;;;;;;;9.40;8.33;;;;;;;13.05;71.17;98579.86;1748420;81;21156;-65
2022/04/26 06:57:05;;;;;;;8.98;7.90;;;;;;;13.06;71.30;98584.19;1742851;80;20998;-68
2022/04/26 06:59:32;;;;;;;10.00;8.50;;;;;;;13.09;71.39;98592.62;1752649;81;21059;-65
2022/04/26 07:01:59;;;;;;;9.33;7.67;;;;;;;13.14;71.47;98586.14;1751630;81;21042;-64
2022/04/26 07:04:27;;;;;;;11.15;7.80;;;;;;;13.22;71.63;98585.13;1732606;80;21008;-67
2022/04/26 07:06:55;;;;;;;8.98;7.25;;;;;;;13.27;71.70;98596.80;1731096;80;20880;-67
2022/04/26 07:09:23;;;;;;;7.72;6.37;;;;;;;13.39;71.71;98594.32;1750149;80;20847;-65
2022/04/26 07:11:51;;;;;;;5.80;5.20;;;;;;;13.43;71.64;98603.03;1741061;81;20888;-67
2022/04/26 07:14:18;;;;;;;4.72;4.22;;;;;;;13.49;71.56;98605.39;1752184;81;20999;-64
2022/04/26 07:16:49;;;;;;;3.92;3.62;;;;;;;13.58;71.25;98610.28;1753833;80;20932;-66
2022/04/26 07:19:13;;;;;;;3.33;2.90;;;;;;;13.61;71.36;98614.39;1750973;81;21107;-64
2022/04/26 07:21:44;;;;;;;3.37;3.08;;;;;;;13.66;70.87;98617.79;1753507;80;20927;-69
2022/04/26 07:24:10;;;;;;;2.80;2.60;;;;;;;13.67;70.76;98624.76;1752192;81;20934;-66
2022/04/26 07:26:36;;;;;;;3.25;2.80;;;;;;;13.71;70.58;98630.83;1752520;81;20974;-66
2022/04/26 07:29:04;;;;;;;2.80;2.60;;;;;;;13.88;70.32;98629.31;1756270;80;20993;-66
2022/04/26 07:31:32;;;;;;;1.87;1.70;;;;;;;14.26;70.12;98632.01;1753942;80;20887;-68
2022/04/26 07:36:44;;;;;;;2.20;2.00;;;;;;;14.76;69.31;98639.14;1736887;80;20899;-67
2022/04/26 07:39:11;;;;;;;1.98;1.77;;;;;;;15.16;68.54;98635.64;1752435;81;20938;-65
2022/04/26 07:41:38;;;;;;;2.60;2.10;;;;;;;15.38;67.68;98644.90;1752673;81;21039;-63
2022/04/26 07:44:05;;;;;;;2.55;1.60;;;;;;;15.64;66.85;98643.87;1751557;81;21331;-65
2022/04/26 07:46:33;;;;;;;2.22;2.00;;;;;;;15.92;65.99;98652.21;1738408;81;21002;-65
2022/04/26 07:49:00;;;;;;;3.55;1.98;;;;;;;16.24;65.06;98652.03;1748451;81;21016;-66
2022/04/26 07:51:26;;;;;;;1.80;1.70;;;;;;;16.52;64.36;98658.49;1733573;81;21048;-68
2022/04/26 07:53:54;;;;;;;1.70;1.60;;;;;;;16.97;62.90;98652.66;1748165;80;21130;-68
2022/04/26 07:56:21;;;;;;;2.50;2.30;;;;;;;17.26;61.28;98657.94;1707199;83;21333;-67
2022/04/26 07:58:49;;;;;;;3.92;2.42;;;;;;;17.72;59.82;98655.00;1750378;80;21561;-66
2022/04/26 08:01:16;;;;;;;2.10;2.00;;;;;;;18.31;58.67;98652.45;1756305;81;21034;-64
2022/04/26 08:03:43;;;;;;;2.70;2.50;;;;;;;18.87;56.67;98658.39;1756001;81;20970;-65
2022/04/26 08:06:10;;;;;;;2.35;2.15;;;;;;;19.55;55.19;98658.18;1747722;81;20927;-67
2022/04/26 08:08:39;;;;;;;2.02;1.90;;;;;;;20.33;53.46;98658.69;1757156;80;20911;-66
2022/04/26 08:11:11;;;;;;;3.02;2.72;;;;;;;21.59;51.12;98654.21;1745425;81;20903;-64
2022/04/26 08:13:36;;;;;;;3.35;2.70;;;;;;;22.38;47.87;98663.84;1750062;80;20939;-66
2022/04/26 08:16:04;;;;;;;4.22;3.83;;;;;;;23.29;45.39;98658.59;1746459;80;20947;-66
2022/04/26 08:18:31;;;;;;;3.55;3.25;;;;;;;23.75;43.22;98649.32;1756890;81;20998;-65
2022/04/26 08:20:58;;;;;;;2.45;2.25;;;;;;;24.29;41.30;98658.16;1748726;81;21166;-70
2022/04/26 08:23:26;;;;;;;2.80;1.92;;;;;;;24.69;39.89;98653.06;1755077;81;21036;-69
2022/04/26 08:28:38;;;;;;;2.58;2.22;;;;;;;25.46;38.55;98650.34;1756650;81;21508;-70
2022/04/26 08:31:05;;;;;;;3.65;3.10;;;;;;;25.76;37.50;98650.03;1757292;81;21046;-67
2022/04/26 08:33:35;;;;;;;3.30;3.10;;;;;;;26.38;36.04;98649.05;1742576;81;20932;-67
2022/04/26 08:36:02;;;;;;;3.98;3.67;;;;;;;26.14;35.75;98655.66;1752081;81;20914;-66
2022/04/26 08:38:28;;;;;;;5.08;4.30;;;;;;;26.53;34.76;98652.70;1747527;81;20995;-66
2022/04/26 08:40:55;;;;;;;5.80;5.00;;;;;;;26.23;34.29;98658.80;1756295;81;21062;-68
2022/04/26 08:43:21;;;;;;;5.72;5.22;;;;;;;26.33;33.99;98649.70;1751194;80;21631;-66
2022/04/26 08:45:48;;;;;;;4.70;4.30;;;;;;;26.38;33.17;98656.99;1746813;81;21167;-68
2022/04/26 08:51:05;;;;;;;4.85;4.45;;;;;;;25.55;32.36;98658.14;1676531;84;20983;-68
2022/04/26 08:53:34;;;;;;;3.77;3.45;;;;;;;25.53;32.51;98666.34;1679029;84;21015;-68
2022/04/26 08:56:06;;;;;;;3.60;3.30;;;;;;;25.96;32.17;98668.64;1698472;81;20982;-68
2022/04/26 08:58:34;;;;;;;2.92;2.70;;;;;;;26.49;31.46;98664.73;1742200;80;21247;-67
2022/04/26 09:01:18;;;;;;;3.22;2.83;;;;;;;26.82;30.80;98661.05;1754120;81;20926;-67
2022/04/26 09:03:58;;;;;;;3.85;3.55;;;;;;;27.18;30.05;98671.41;1753308;81;20991;-71
2022/04/26 09:06:39;;;;;;;4.87;4.03;;;;;;;26.87;29.97;98665.61;1753097;81;20969;-68
2022/04/26 09:09:11;;;;;;;3.30;3.00;;;;;;;27.68;29.61;98666.50;1725483;82;20931;-67
2022/04/26 09:11:40;;;;;;;2.87;2.50;;;;;;;28.44;28.98;98662.30;1717342;83;21565;-65
2022/04/26 09:14:09;;;;;;;2.58;2.30;;;;;;;29.15;27.86;98655.48;1733948;82;21580;-68
2022/04/26 09:16:36;;;;;;;4.67;3.58;;;;;;;29.41;25.91;98664.49;1732157;82;21544;-65
2022/04/26 09:19:08;;;;;;;3.33;3.02;;;;;;;29.56;25.92;98673.69;1734144;82;21007;-71
2022/04/26 09:21:36;;;;;;;3.58;2.85;;;;;;;28.88;26.81;98672.02;1723378;82;21090;-68
2022/04/26 09:24:06;;;;;;;3.52;3.22;;;;;;;28.69;25.90;98674.09;1675477;84;21856;-69
2022/04/26 09:26:38;;;;;;;3.90;3.52;;;;;;;27.72;26.49;98677.06;1701459;84;21006;-69
2022/04/26 09:29:06;;;;;;;3.05;2.58;;;;;;;26.76;27.51;98686.74;1707082;83;20939;-68
2022/04/26 09:31:36;;;;;;;3.40;2.60;;;;;;;25.85;28.55;98689.73;1692468;84;20907;-72
2022/04/26 09:34:12;;;;;;;5.53;3.20;;;;;;;25.13;29.48;98691.40;1697223;84;20951;-70
2022/04/26 09:36:46;;;;;;;4.17;3.35;;;;;;;24.72;30.09;98701.42;1670331;86;20935;-64
2022/04/26 09:39:18;;;;;;;3.05;2.72;;;;;;;24.51;30.49;98699.36;1699164;84;20943;-70
2022/04/26 09:41:51;;;;;;;2.02;1.82;;;;;;;24.93;30.34;98705.69;1700181;84;20931;-70
2022/04/26 09:44:30;;;;;;;3.08;1.22;;;;;;;24.38;31.29;98710.28;1691412;84;20915;-70
2022/04/26 09:46:57;;;;;;;2.30;1.25;;;;;;;24.55;31.00;98712.14;1702356;84;20962;-69
2022/04/26 09:49:25;;;;;;;0.95;0.95;;;;;;;24.98;30.79;98711.09;1691379;84;21268;-68
2022/04/26 09:51:56;;;;;;;1.40;1.30;;;;;;;24.89;30.55;98712.26;1717354;82;20888;-69
2022/04/26 09:54:22;;;;;;;1.32;1.00;;;;;;;24.56;30.46;98715.11;1717114;83;21007;-67
2022/04/26 09:56:50;;;;;;;3.55;1.30;;;;;;;24.08;31.03;98723.14;1717304;83;21486;-69
2022/04/26 09:59:29;;;;;;;1.10;1.10;;;;;;;23.67;32.02;98727.83;1727124;83;20991;-71
2022/04/26 10:01:57;;;;;;;1.50;0.90;;;;;;;23.26;32.53;98736.45;1716676;82;21293;-67
2022/04/26 10:04:30;;;;;;;2.52;1.30;;;;;;;22.80;33.21;98737.45;1727169;83;20907;-69
2022/04/26 10:07:09;;;;;;;5.58;2.10;;;;;;;22.35;33.93;98735.34;1727036;83;21018;-64
2022/04/26 10:09:37;;;;;;;3.70;1.77;;;;;;;22.07;34.43;98738.73;1727764;83;20975;-69
2022/04/26 10:12:05;;;;;;;2.45;1.27;;;;;;;22.04;34.96;98739.26;1727216;83;21027;-70
2022/04/26 10:14:33;;;;;;;1.47;1.30;;;;;;;22.25;34.89;98737.48;1727090;83;20888;-70
2022/04/26 10:16:59;;;;;;;3.02;1.17;;;;;;;22.17;34.48;98739.86;1727083;83;20895;-67
2022/04/26 10:19:38;;;;;;;1.85;0.80;;;;;;;22.05;34.33;98742.78;1727180;83;20979;-72
2022/04/26 10:22:11;;;;;;;1.32;0.80;;;;;;;22.01;34.54;98742.48;1727244;83;21002;-68
2022/04/26 10:24:40;;;;;;;1.95;0.90;;;;;;;22.11;34.26;98742.54;1727142;83;20880;-66
2022/04/26 10:27:25;;;;;;;3.20;1.17;;;;;;;22.25;34.02;98738.83;1727576;83;21182;-67
2022/04/26 10:29:52;;;;;;;0.60;0.60;;;;;;;22.45;33.91;98743.52;1727197;83;20880;-67
2022/04/26 10:32:34;;;;;;;2.20;0.75;;;;;;;22.80;33.20;98742.34;1727203;83;20971;-67
2022/04/26 10:35:28;;;;;;;1.55;0.82;;;;;;;22.77;32.37;98750.18;1727260;83;20987;-68
2022/04/26 10:38:12;;;;;;;4.45;1.25;;;;;;;22.88;31.85;98752.67;1727205;83;21470;-69
2022/04/26 10:41:06;;;;;;;3.30;1.20;;;;;;;22.64;32.14;98761.80;1727314;82;21366;-70
2022/04/26 10:43:32;;;;;;;2.25;1.10;;;;;;;22.33;32.72;98757.30;1727062;83;21565;-70
2022/04/26 10:46:14;;;;;;;1.40;1.30;;;;;;;21.78;33.45;98761.79;1727133;83;20963;-67
2022/04/26 10:48:42;;;;;;;2.15;1.75;;;;;;;21.48;33.86;98767.77;1727054;82;20944;-71
2022/04/26 10:51:33;;;;;;;3.17;2.02;;;;;;;20.97;34.88;98764.79;1727059;82;20900;-70
2022/04/26 10:54:02;;;;;;;3.47;2.05;;;;;;;20.97;34.88;98764.79;1727074;83;21172;-71
2022/04/26 10:56:32;;;;;;;2.15;1.90;;;;;;;20.90;35.09;98776.64;1727014;83;21710;-70
2022/04/26 10:58:59;;;;;;;2.17;1.30;;;;;;;20.80;34.76;98777.06;1727065;83;20975;-69
2022/04/26 11:01:27;;;;;;;1.17;1.07;;;;;;;20.44;34.74;98779.05;1727469;83;20955;-70
2022/04/26 11:03:58;;;;;;;2.85;1.35;;;;;;;20.10;34.98;98784.47;1727124;83;20927;-68
2022/04/26 11:06:35;;;;;;;3.15;1.55;;;;;;;19.81;35.28;98792.41;1727103;83;21158;-67
2022/04/26 11:09:14;;;;;;;2.15;1.10;;;;;;;19.51;35.76;98802.69;1727049;83;21530;-68
2022/04/26 11:11:53;;;;;;;2.12;1.22;;;;;;;19.29;36.35;98806.61;1727243;83;20963;-67
2022/04/26 11:14:20;;;;;;;1.25;1.10;;;;;;;19.11;36.63;98802.73;1727394;83;21501;-67
2022/04/26 11:17:03;;;;;;;2.02;1.10;;;;;;;18.83;36.96;98808.12;1727122;83;20995;-68
2022/04/26 11:19:36;;;;;;;1.20;0.98;;;;;;;18.60;37.56;98809.02;1727102;83;21249;-68
2022/04/26 11:22:13;;;;;;;2.02;1.20;;;;;;;18.33;38.02;98817.27;1727232;83;21012;-66
2022/04/26 11:30:33;;;;;;;1.35;1.25;;;;;;;17.94;39.74;98812.63;1727464;83;20852;-70
2022/04/26 11:33:00;;;;;;;1.65;1.30;;;;;;;17.90;40.01;98820.33;1727006;82;21834;-70
2022/04/26 11:35:27;;;;;;;1.55;1.45;;;;;;;17.92;40.36;98823.59;1726929;82;21030;-70
2022/04/26 11:38:00;;;;;;;2.02;1.27;;;;;;;17.95;40.62;98824.48;1727016;83;21427;-71
2022/04/26 11:40:32;;;;;;;1.37;1.12;;;;;;;17.88;40.83;98823.23;1724254;82;20935;-70
2022/04/26 11:43:14;;;;;;;1.55;1.25;;;;;;;17.89;41.02;98823.54;1727051;83;21025;-70
2022/04/26 11:45:48;;;;;;;2.27;1.30;;;;;;;17.84;41.02;98824.77;1727128;83;20892;-66
2022/04/26 11:48:18;;;;;;;1.22;1.12;;;;;;;17.79;41.49;98827.85;1726909;83;20944;-67
2022/04/26 11:50:52;;;;;;;1.77;1.17;;;;;;;17.70;41.31;98829.26;1730782;81;21026;-68
2022/04/26 11:53:20;;;;;;;7.33;1.55;;;;;;;17.53;41.62;98829.09;1756269;81;21493;-71
2022/04/26 11:56:00;;;;;;;3.25;1.45;;;;;;;17.35;41.33;98832.34;1756457;81;21038;-69
2022/04/26 11:58:34;;;;;;;1.72;1.37;;;;;;;17.21;41.28;98829.84;1756346;81;20931;-66
2022/04/26 12:01:15;;;;;;;1.57;1.05;;;;;;;17.20;41.31;98828.22;1754655;81;21037;-68
2022/04/26 12:03:49;;;;;;;2.20;1.10;;;;;;;17.21;41.07;98827.67;1756450;81;20943;-68
2022/04/26 12:06:26;;;;;;;2.17;1.67;;;;;;;17.23;40.82;98833.11;1756488;81;20982;-69
2022/04/26 12:08:56;;;;;;;1.72;1.62;;;;;;;17.19;41.00;98829.77;1756348;81;20847;-69
2022/04/26 12:11:28;;;;;;;2.62;1.60;;;;;;;17.16;41.15;98832.39;1756499;81;20915;-69
2022/04/26 12:14:06;;;;;;;2.45;1.20;;;;;;;17.15;41.36;98836.66;1756346;81;21394;-68
2022/04/26 12:16:42;;;;;;;1.65;1.30;;;;;;;17.19;41.44;98840.00;1756604;81;20895;-68
2022/04/26 12:19:09;;;;;;;1.42;1.30;;;;;;;17.20;41.47;98844.34;1752190;81;21486;-71
2022/04/26 12:21:52;;;;;;;2.08;1.87;;;;;;;17.25;41.43;98839.11;1756538;81;20986;-65
2022/04/26 12:24:25;;;;;;;3.67;2.42;;;;;;;17.24;41.24;98846.86;1756638;81;20931;-69
2022/04/26 12:27:02;;;;;;;5.15;2.67;;;;;;;17.25;41.33;98847.17;1756407;81;20887;-67
2022/04/26 12:29:31;;;;;;;2.47;2.27;;;;;;;17.26;41.31;98834.00;1756443;81;20975;-68
2022/04/26 12:31:59;;;;;;;2.75;2.40;;;;;;;17.32;41.43;98834.96;1756578;81;20972;-70
2022/04/26 12:34:31;;;;;;;5.30;3.77;;;;;;;17.42;41.60;98835.74;1756564;81;20998;-69
2022/04/26 12:37:06;;;;;;;4.10;3.42;;;;;;;17.50;41.35;98830.86;1756570;81;21519;-71
2022/04/26 12:39:43;;;;;;;4.15;3.40;;;;;;;17.57;40.96;98833.50;1756538;81;20947;-67
2022/04/26 12:42:13;;;;;;;;;;;;;;;17.65;41.09;98831.83;1759389;81;20998;-70
2022/04/26 12:45:00;;;;;;;4.25;2.55;;;;;;;17.75;41.18;98830.18;1756512;81;20090;-70
2022/04/26 12:50:31;;;;;;;3.83;3.33;;;;;;;18.01;40.44;98829.47;1756661;81;21163;-67
2022/04/26 12:53:02;;;;;;;4.75;3.25;;;;;;;18.00;40.23;98828.64;1730419;81;20903;-70
2022/04/26 12:55:39;;;;;;;9.43;3.83;;;;;;;18.03;40.14;98821.97;1727368;83;21425;-70
2022/04/26 12:58:11;;;;;;;4.73;3.37;;;;;;;18.06;40.03;98822.85;1727606;83;20916;-72
2022/04/26 13:00:43;;;;;;;3.52;3.22;;;;;;;18.14;39.72;98824.67;1727352;83;20986;-66
2022/04/26 13:03:14;;;;;;;3.80;3.47;;;;;;;18.24;39.64;98828.11;1727257;83;21150;-71
2022/04/26 13:05:48;;;;;;;7.62;4.47;;;;;;;18.34;39.61;98821.09;1727311;83;20952;-66
2022/04/26 13:08:20;;;;;;;5.03;3.27;;;;;;;18.55;39.47;98818.86;1727294;83;20892;-67
2022/04/26 13:10:48;;;;;;;2.90;2.42;;;;;;;18.72;39.27;98823.81;1727167;83;21532;-65
2022/04/26 13:13:15;;;;;;;5.58;2.22;;;;;;;18.84;39.00;98827.28;1727138;83;20856;-70
2022/04/26 13:15:43;;;;;;;4.75;1.42;;;;;;;18.97;38.84;98825.66;1727438;83;21169;-67
2022/04/26 13:18:12;;;;;;;2.02;1.35;;;;;;;19.07;38.87;98822.64;1727142;83;20931;-67
2022/04/26 13:20:40;;;;;;;1.10;0.90;;;;;;;19.13;38.23;98828.13;1727215;83;20987;-70
2022/04/26 13:23:07;;;;;;;1.40;1.30;;;;;;;19.00;37.50;98830.58;1727240;83;20990;-70
2022/04/26 13:25:33;;;;;;;3.45;1.25;;;;;;;18.88;37.76;98831.12;1727121;83;20912;-69
2022/04/26 13:28:06;;;;;;;1.12;0.95;;;;;;;18.81;37.96;98829.11;1727264;83;21007;-68
2022/04/26 13:30:34;;;;;;;0.90;0.80;;;;;;;18.78;38.07;98826.36;1727044;83;20999;-72
2022/04/26 13:33:03;;;;;;;2.33;0.98;;;;;;;18.74;38.31;98825.21;1727253;83;20955;-71
2022/04/26 13:35:31;;;;;;;0.88;0.88;;;;;;;18.76;38.52;98823.09;1727486;83;21249;-66
2022/04/26 13:37:58;;;;;;;2.72;1.20;;;;;;;18.77;38.69;98823.92;1727049;83;21600;-70
2022/04/26 13:40:25;;;;;;;5.60;1.42;;;;;;;18.80;38.79;98831.50;1727106;83;21357;-71
2022/04/26 13:42:54;;;;;;;2.98;1.15;;;;;;;18.84;38.68;98831.33;1726993;83;20876;-69
2022/04/26 13:45:20;;;;;;;4.53;1.00;;;;;;;18.87;38.31;98835.72;1727160;83;21493;-68
2022/04/26 13:47:47;;;;;;;2.75;1.20;;;;;;;18.89;38.16;98838.16;1727033;83;21553;-70
2022/04/26 13:50:15;;;;;;;1.40;1.15;;;;;;;18.93;38.14;98837.44;1727067;83;20928;-71
2022/04/26 13:52:44;;;;;;;1.32;1.20;;;;;;;18.99;38.07;98843.75;1727105;82;22141;-69
2022/04/26 13:55:15;;;;;;;2.40;1.27;;;;;;;18.94;38.11;98843.66;1727110;83;20951;-68
2022/04/26 13:57:40;;;;;;;1.55;1.30;;;;;;;18.88;38.26;98843.25;1727192;82;21012;-66
2022/04/26 14:00:08;;;;;;;1.45;0.95;;;;;;;18.76;38.77;98843.30;1727340;83;21666;-70
2022/04/26 14:02:41;;;;;;;0.70;0.70;;;;;;;18.66;38.81;98842.27;1727257;82;20994;-69
2022/04/26 14:05:08;;;;;;;1.25;0.93;;;;;;;18.51;38.92;98855.41;1727333;81;21096;-67
2022/04/26 14:07:36;;;;;;;0.75;0.70;;;;;;;18.32;39.21;98851.99;1727198;83;21030;-71
2022/04/26 14:10:06;;;;;;;2.12;1.00;;;;;;;18.22;39.40;98852.59;1727266;83;21485;-64
2022/04/26 14:12:36;;;;;;;2.80;0.98;;;;;;;18.13;39.66;98855.33;1727524;83;20951;-68
2022/04/26 14:23:23;;;;;;;3.22;1.40;;;;;;;17.68;40.36;98867.65;1727415;82;21267;-71
2022/04/26 14:25:50;;;;;;;1.07;0.90;;;;;;;17.49;40.69;98874.13;1727114;83;20903;-69
2022/04/26 14:28:17;;;;;;;1.05;1.00;;;;;;;17.35;40.80;98879.38;1727119;83;21005;-70
2022/04/26 14:30:45;;;;;;;1.22;0.90;;;;;;;17.25;40.77;98878.59;1727165;83;21268;-66
2022/04/26 14:33:13;;;;;;;2.65;1.37;;;;;;;17.16;40.82;98878.59;1727455;83;20923;-71
2022/04/26 14:35:40;;;;;;;2.47;1.20;;;;;;;17.13;40.88;98886.59;1727138;83;21036;-69
2022/04/26 14:38:10;;;;;;;2.12;1.32;;;;;;;17.10;41.09;98889.73;1727093;83;21482;-65
2022/04/26 14:40:38;;;;;;;2.08;1.40;;;;;;;17.07;41.31;98886.69;1727499;83;21037;-65
2022/04/26 14:43:07;;;;;;;2.65;1.50;;;;;;;17.01;41.30;98888.41;1727074;83;21227;-69
2022/04/26 14:45:42;;;;;;;1.65;1.20;;;;;;;16.98;41.42;98889.38;1727066;83;20943;-68
2022/04/26 14:48:02;;;;;;;2.90;1.20;;;;;;;16.94;41.61;98894.39;1726149;82;20958;-68
2022/04/26 14:50:30;;;;;;;1.07;0.98;;;;;;;16.90;41.71;98897.73;1673787;83;21011;-67
2022/04/26 14:52:57;;;;;;;1.50;1.07;;;;;;;16.84;41.82;98894.08;1727059;82;20982;-70
2022/04/26 14:55:23;;;;;;;1.20;1.10;;;;;;;16.79;42.08;98894.47;1727051;83;21105;-65
2022/04/26 14:57:50;;;;;;;1.32;1.07;;;;;;;16.72;42.53;98891.84;1727210;83;20978;-70
2022/04/26 15:00:17;;;;;;;1.30;1.20;;;;;;;16.64;42.80;98905.05;1727035;83;20988;-69
2022/04/26 15:02:44;;;;;;;1.22;1.15;;;;;;;16.56;43.20;98905.85;1727002;83;20904;-68
2022/04/26 15:05:12;;;;;;;1.17;1.07;;;;;;;16.47;43.39;98911.20;1727081;83;20936;-67
2022/04/26 15:10:27;;;;;;;4.37;2.73;;;;;;;16.38;43.74;98919.22;1727265;83;20925;-71
2022/04/26 15:18:25;;;;;;;2.90;1.70;;;;;;;16.39;43.81;98926.24;1727349;83;21453;-68
2022/04/26 15:20:54;;;;;;;1.75;1.50;;;;;;;16.32;44.12;98921.46;1727143;83;20896;-67
2022/04/26 15:23:22;;;;;;;1.98;1.40;;;;;;;16.33;44.05;98926.59;1727152;83;20927;-68
2022/04/26 15:25:52;;;;;;;2.50;1.65;;;;;;;16.32;44.12;98918.78;1727220;81;20944;-72
2022/04/26 15:28:19;;;;;;;2.50;1.40;;;;;;;16.28;44.23;98918.39;1727411;83;21480;-73
2022/04/26 15:30:48;;;;;;;1.60;1.50;;;;;;;16.29;44.36;98918.70;1727173;83;21014;-71
2022/04/26 15:33:15;;;;;;;1.22;1.20;;;;;;;16.32;44.20;98918.23;1727393;83;21554;-70
2022/04/26 15:35:43;;;;;;;1.10;1.00;;;;;;;16.31;43.96;98923.83;1727162;83;20923;-71
2022/04/26 15:38:12;;;;;;;1.20;1.10;;;;;;;16.27;43.97;98921.30;1727014;83;20943;-70
2022/04/26 15:40:40;;;;;;;1.52;1.30;;;;;;;16.27;43.87;98936.06;1727459;83;20999;-70
2022/04/26 15:43:07;;;;;;;1.62;1.47;;;;;;;16.26;43.95;98926.36;1727401;83;21903;-68
2022/04/26 15:45:36;;;;;;;5.40;1.80;;;;;;;16.21;44.12;98935.08;1727207;83;21284;-69
2022/04/26 15:48:05;;;;;;;1.70;1.60;;;;;;;16.18;44.23;98932.00;1726959;83;21545;-69
2022/04/26 15:50:31;;;;;;;2.20;1.95;;;;;;;16.16;44.36;98933.57;1727159;83;20990;-69
2022/04/26 15:52:58;;;;;;;1.42;1.35;;;;;;;16.15;44.48;98933.77;1727079;82;20995;-70
2022/04/26 15:55:25;;;;;;;2.55;1.55;;;;;;;16.13;44.65;98930.49;1727172;83;20888;-68
2022/04/26 15:57:52;;;;;;;1.32;1.20;;;;;;;16.12;44.63;98936.38;1727254;83;21991;-65